createdAt,value
2022-08-17T00:00:52.051Z,20.80
2022-08-17T00:03:42.894Z,20.70
2022-08-17T00:06:28.537Z,20.60
2022-08-17T00:09:30.327Z,20.50
2022-08-17T00:12:41.535Z,20.50
2022-08-17T00:15:08.211Z,20.50
2022-08-17T00:17:38.207Z,20.50
2022-08-17T00:20:45.082Z,20.50
2022-08-17T00:23:15.165Z,20.40
2022-08-17T00:25:44.576Z,20.30
2022-08-17T00:28:12.335Z,20.20
2022-08-17T00:30:59.430Z,20.20
2022-08-17T00:33:46.369Z,20.20
2022-08-17T00:36:28.302Z,20.30
2022-08-17T00:39:15.349Z,20.30
2022-08-17T00:42:02.271Z,20.20
2022-08-17T00:44:30.289Z,20.20
2022-08-17T00:46:58.374Z,20.20
2022-08-17T00:50:07.027Z,20.20
2022-08-17T00:52:55.878Z,20.40
2022-08-17T00:55:37.872Z,20.40
2022-08-17T00:58:30.413Z,20.40
2022-08-17T01:01:23.788Z,20.40
2022-08-17T01:03:53.290Z,20.30
2022-08-17T01:06:25.213Z,20.20
2022-08-17T01:09:12.971Z,20.10
2022-08-17T01:12:00.230Z,20.00
2022-08-17T01:14:42.108Z,19.90
2022-08-17T01:17:09.777Z,19.90
2022-08-17T01:20:16.896Z,19.90
2022-08-17T01:22:59.878Z,19.90
2022-08-17T01:25:42.049Z,19.90
2022-08-17T01:28:53.019Z,19.90
2022-08-17T01:31:52.403Z,19.90
2022-08-17T01:34:42.626Z,19.90
2022-08-17T01:37:13.126Z,19.90
2022-08-17T01:39:57.747Z,19.90
2022-08-17T01:42:33.103Z,19.90
2022-08-17T01:45:11.221Z,19.90
2022-08-17T01:47:54.626Z,19.80
2022-08-17T01:50:38.020Z,19.80
2022-08-17T01:53:42.294Z,19.70
2022-08-17T01:56:25.551Z,19.70
2022-08-17T01:59:07.435Z,19.70
2022-08-17T02:01:35.562Z,19.70
2022-08-17T02:04:22.518Z,19.70
2022-08-17T02:06:54.274Z,19.70
2022-08-17T02:09:29.579Z,19.60
2022-08-17T02:11:59.419Z,19.60
2022-08-17T02:14:46.368Z,19.50
2022-08-17T02:17:28.294Z,19.50
2022-08-17T02:19:55.398Z,19.50
2022-08-17T02:22:22.525Z,19.50
2022-08-17T02:25:32.098Z,19.50
2022-08-17T02:28:55.730Z,19.40
2022-08-17T02:31:58.569Z,19.40
2022-08-17T02:34:27.457Z,19.40
2022-08-17T02:37:17.314Z,19.40
2022-08-17T02:39:59.539Z,19.40
2022-08-17T02:43:01.518Z,19.50
2022-08-17T02:45:44.890Z,19.50
2022-08-17T02:48:31.418Z,19.50
2022-08-17T02:51:00.163Z,19.40
2022-08-17T02:53:47.072Z,19.40
2022-08-17T02:56:28.874Z,19.40
2022-08-17T02:59:10.678Z,19.30
2022-08-17T03:01:37.965Z,19.30
2022-08-17T03:04:25.007Z,19.30
2022-08-17T03:06:52.392Z,19.30
2022-08-17T03:09:39.349Z,19.40
2022-08-17T03:12:14.289Z,19.30
2022-08-17T03:15:08.627Z,19.40
2022-08-17T03:17:52.009Z,19.40
2022-08-17T03:20:20.282Z,19.40
2022-08-17T03:22:53.357Z,19.40
2022-08-17T03:25:47.006Z,19.40
2022-08-17T03:28:34.161Z,19.30
2022-08-17T03:31:01.394Z,19.30
2022-08-17T03:33:28.540Z,19.30
2022-08-17T03:36:36.064Z,19.40
2022-08-17T03:39:18.124Z,19.40
2022-08-17T03:42:31.370Z,19.40
2022-08-17T03:45:01.430Z,19.50
2022-08-17T03:48:27.184Z,19.50
2022-08-17T03:51:36.464Z,19.50
2022-08-17T03:54:22.355Z,19.60
2022-08-17T03:57:11.108Z,19.60
2022-08-17T03:59:58.258Z,19.70
2022-08-17T04:02:30.503Z,19.80
2022-08-17T04:04:58.588Z,19.80
2022-08-17T04:07:45.544Z,19.90
2022-08-17T04:10:34.029Z,20.00
2022-08-17T04:13:31.846Z,20.10
2022-08-17T04:15:59.940Z,20.20
2022-08-17T04:18:26.961Z,20.20
2022-08-17T04:21:34.521Z,20.30
2022-08-17T04:24:16.277Z,20.40
2022-08-17T04:26:52.464Z,20.50
2022-08-17T04:29:48.696Z,20.50
2022-08-17T04:33:03.452Z,20.60
2022-08-17T04:35:37.692Z,20.70
2022-08-17T04:38:22.379Z,20.70
2022-08-17T04:41:08.508Z,20.80
2022-08-17T04:44:15.528Z,20.90
2022-08-17T04:47:17.291Z,21.00
2022-08-17T04:50:02.391Z,21.10
2022-08-17T04:52:43.145Z,21.10
2022-08-17T04:55:31.388Z,21.20
2022-08-17T04:57:58.516Z,21.30
2022-08-17T05:00:45.627Z,21.40
2022-08-17T05:03:13.041Z,21.40
2022-08-17T05:06:20.544Z,21.60
2022-08-17T05:09:03.001Z,21.70
2022-08-17T05:11:45.787Z,21.80
2022-08-17T05:14:13.382Z,21.80
2022-08-17T05:17:20.215Z,21.80
2022-08-17T05:20:02.061Z,21.90
2022-08-17T05:22:52.292Z,22.00
2022-08-17T05:25:41.139Z,22.00
2022-08-17T05:28:28.310Z,22.00
2022-08-17T05:31:16.959Z,22.20
2022-08-17T05:33:59.014Z,22.20
2022-08-17T05:36:44.044Z,22.30
2022-08-17T05:39:34.469Z,22.40
2022-08-17T05:42:02.589Z,22.60
2022-08-17T05:44:44.400Z,22.60
2022-08-17T05:47:27.041Z,22.70
2022-08-17T05:50:33.594Z,22.80
2022-08-17T05:53:30.768Z,22.90
2022-08-17T05:56:47.922Z,23.00
2022-08-17T05:59:34.707Z,23.20
2022-08-17T06:02:15.633Z,23.40
2022-08-17T06:05:10.675Z,23.60
2022-08-17T06:07:37.571Z,23.60
2022-08-17T06:10:22.874Z,23.60
2022-08-17T06:13:26.841Z,23.80
2022-08-17T06:16:02.259Z,23.90
2022-08-17T06:18:36.669Z,24.10
2022-08-17T06:21:07.429Z,24.20
2022-08-17T06:23:39.306Z,24.30
2022-08-17T06:26:14.220Z,24.30
2022-08-17T06:28:49.736Z,24.40
2022-08-17T06:31:22.552Z,24.50
2022-08-17T06:33:50.708Z,24.60
2022-08-17T06:36:51.475Z,24.80
2022-08-17T06:39:47.629Z,24.90
2022-08-17T06:43:02.358Z,25.20
2022-08-17T06:45:13.730Z,25.30
2022-08-17T06:47:45.252Z,25.30
2022-08-17T06:50:14.550Z,25.40
2022-08-17T06:52:53.597Z,25.30
2022-08-17T06:55:26.964Z,25.40
2022-08-17T06:57:59.806Z,25.70
2022-08-17T07:00:36.501Z,25.70
2022-08-17T07:03:28.056Z,25.60
2022-08-17T07:06:01.478Z,25.60
2022-08-17T07:08:42.557Z,25.50
2022-08-17T07:11:33.178Z,25.40
2022-08-17T07:14:22.365Z,25.50
2022-08-17T07:16:51.838Z,25.50
2022-08-17T07:19:23.730Z,25.50
2022-08-17T07:22:18.510Z,25.40
2022-08-17T07:25:10.503Z,25.50
2022-08-17T07:27:51.076Z,25.80
2022-08-17T07:30:25.497Z,25.90
2022-08-17T07:32:59.060Z,26.00
2022-08-17T07:35:31.134Z,26.00
2022-08-17T07:38:25.394Z,26.10
2022-08-17T07:41:03.088Z,26.40
2022-08-17T07:43:32.259Z,26.60
2022-08-17T07:46:29.808Z,26.40
2022-08-17T07:49:17.441Z,26.40
2022-08-17T07:51:45.580Z,26.70
2022-08-17T07:54:15.272Z,26.90
2022-08-17T07:57:00.463Z,27.20
2022-08-17T07:59:34.869Z,27.30
2022-08-17T08:02:16.235Z,27.70
2022-08-17T08:05:01.088Z,27.60
2022-08-17T08:07:55.027Z,27.60
2022-08-17T08:10:28.111Z,27.80
2022-08-17T08:13:21.527Z,28.00
2022-08-17T08:16:12.370Z,28.20
2022-08-17T08:18:54.224Z,28.40
2022-08-17T08:21:42.622Z,28.50
2022-08-17T08:24:36.515Z,28.50
2022-08-17T08:27:28.068Z,28.50
2022-08-17T08:30:06.460Z,28.20
2022-08-17T08:33:08.296Z,28.10
2022-08-17T08:35:53.743Z,28.20
2022-08-17T08:38:56.627Z,28.40
2022-08-17T08:41:33.589Z,28.80
2022-08-17T08:44:12.849Z,28.70
2022-08-17T08:47:03.884Z,28.10
2022-08-17T08:50:05.529Z,27.70
2022-08-17T08:52:54.618Z,27.90
2022-08-17T08:55:52.768Z,28.20
2022-08-17T08:58:31.883Z,28.30
2022-08-17T09:01:18.636Z,28.40
2022-08-17T09:04:23.211Z,28.80
2022-08-17T09:07:09.937Z,28.90
2022-08-17T09:10:01.117Z,29.00
2022-08-17T09:12:41.635Z,29.10
2022-08-17T09:15:25.643Z,28.80
2022-08-17T09:21:01.040Z,27.80
2022-08-17T09:23:49.445Z,27.90
2022-08-17T09:26:31.302Z,28.10
2022-08-17T09:29:03.190Z,28.40
2022-08-17T09:31:46.332Z,28.40
2022-08-17T09:34:22.198Z,28.70
2022-08-17T09:37:05.670Z,29.00
2022-08-17T09:39:35.841Z,29.50
2022-08-17T09:42:39.978Z,29.70
2022-08-17T09:45:30.375Z,29.90
2022-08-17T09:48:18.029Z,30.10
2022-08-17T09:51:04.786Z,30.40
2022-08-17T09:53:36.215Z,30.40
2022-08-17T09:56:24.140Z,30.10
2022-08-17T09:59:03.404Z,30.40
2022-08-17T10:01:42.475Z,30.40
2022-08-17T10:04:47.253Z,29.90
2022-08-17T10:07:25.209Z,29.30
2022-08-17T10:09:57.955Z,28.90
2022-08-17T10:12:39.636Z,28.50
2022-08-17T10:15:17.445Z,28.60
2022-08-17T10:18:22.290Z,29.00
2022-08-17T10:21:35.838Z,29.30
2022-08-17T10:25:21.129Z,29.40
2022-08-17T10:27:54.096Z,29.30
2022-08-17T10:31:16.536Z,29.90
2022-08-17T10:34:40.353Z,30.20
2022-08-17T10:37:52.720Z,30.20
2022-08-17T10:40:37.641Z,30.00
2022-08-17T10:44:36.595Z,29.60
2022-08-17T10:46:55.494Z,29.20
2022-08-17T10:49:24.148Z,29.00
2022-08-17T10:52:26.227Z,28.90
2022-08-17T10:54:59.132Z,28.80
2022-08-17T10:57:34.777Z,28.90
2022-08-17T11:00:14.792Z,29.20
2022-08-17T11:02:50.089Z,29.70
2022-08-17T11:05:54.075Z,30.20
2022-08-17T11:08:47.415Z,30.30
2022-08-17T11:11:37.271Z,30.10
2022-08-17T11:14:17.142Z,29.70
2022-08-17T11:16:53.345Z,29.60
2022-08-17T11:19:50.820Z,29.70
2022-08-17T11:22:40.992Z,29.70
2022-08-17T11:25:13.924Z,29.70
2022-08-17T11:27:42.635Z,29.40
2022-08-17T11:30:21.155Z,29.60
2022-08-17T11:32:54.433Z,30.10
2022-08-17T11:35:38.283Z,30.20
2022-08-17T11:38:50.193Z,30.30
2022-08-17T11:41:31.578Z,30.50
2022-08-17T11:44:24.772Z,30.70
2022-08-17T11:47:13.509Z,30.60
2022-08-17T11:50:27.990Z,30.60
2022-08-17T11:52:55.470Z,30.80
2022-08-17T11:55:35.818Z,30.40
2022-08-17T11:58:06.451Z,30.70
2022-08-17T12:00:45.407Z,30.60
2022-08-17T12:03:36.936Z,31.00
2022-08-17T12:06:30.415Z,31.10
2022-08-17T12:09:25.055Z,31.10
2022-08-17T12:12:01.688Z,31.60
2022-08-17T12:15:08.214Z,31.90
2022-08-17T12:17:52.230Z,31.70
2022-08-17T12:20:30.575Z,31.50
2022-08-17T12:23:06.778Z,31.20
2022-08-17T12:25:59.387Z,30.60
2022-08-17T12:28:36.279Z,30.20
2022-08-17T12:31:13.015Z,29.70
2022-08-17T12:33:46.033Z,29.40
2022-08-17T12:36:20.927Z,29.20
2022-08-17T12:39:14.583Z,29.10
2022-08-17T12:41:52.085Z,29.10
2022-08-17T12:44:24.913Z,29.60
2022-08-17T12:46:54.879Z,30.30
2022-08-17T12:49:27.029Z,30.70
2022-08-17T12:52:18.080Z,30.90
2022-08-17T12:55:18.571Z,31.10
2022-08-17T12:57:51.761Z,31.20
2022-08-17T13:00:26.602Z,31.20
2022-08-17T13:03:00.876Z,31.10
2022-08-17T13:05:37.752Z,31.10
2022-08-17T13:08:16.609Z,31.40
2022-08-17T13:10:59.754Z,31.50
2022-08-17T13:13:29.915Z,31.30
2022-08-17T13:16:00.867Z,31.30
2022-08-17T13:18:38.338Z,31.20
2022-08-17T13:21:11.520Z,31.20
2022-08-17T13:23:39.251Z,30.70
2022-08-17T13:26:16.282Z,30.50
2022-08-17T13:28:51.738Z,30.50
2022-08-17T13:31:56.260Z,30.40
2022-08-17T13:34:49.589Z,30.20
2022-08-17T13:37:33.626Z,30.20
2022-08-17T13:40:08.726Z,30.30
2022-08-17T13:42:51.510Z,30.40
2022-08-17T13:45:35.344Z,30.40
2022-08-17T13:48:32.005Z,30.30
2022-08-17T13:50:59.526Z,30.40
2022-08-17T13:53:36.374Z,30.60
2022-08-17T13:56:34.933Z,30.80
2022-08-17T13:59:11.818Z,30.80
2022-08-17T14:01:40.747Z,30.70
2022-08-17T14:04:20.521Z,30.80
2022-08-17T14:06:57.831Z,30.90
2022-08-17T14:09:37.554Z,30.80
2022-08-17T14:12:10.715Z,30.70
2022-08-17T14:14:38.700Z,30.60
2022-08-17T14:17:05.810Z,30.40
2022-08-17T14:19:35.423Z,30.40
2022-08-17T14:22:03.256Z,30.50
2022-08-17T14:24:35.150Z,30.50
2022-08-17T14:27:05.606Z,30.40
2022-08-17T14:29:34.326Z,30.20
2022-08-17T14:32:20.227Z,30.10
2022-08-17T14:34:49.525Z,30.00
2022-08-17T14:37:20.998Z,30.10
2022-08-17T14:39:48.301Z,30.10
2022-08-17T14:42:15.491Z,30.10
2022-08-17T14:44:42.488Z,30.00
2022-08-17T14:47:15.823Z,29.90
2022-08-17T14:49:43.709Z,29.90
2022-08-17T14:52:16.957Z,29.90
2022-08-17T14:54:45.922Z,29.80
2022-08-17T14:57:25.933Z,29.70
2022-08-17T15:00:00.809Z,29.70
2022-08-17T15:02:30.158Z,29.70
2022-08-17T15:05:03.566Z,29.50
2022-08-17T15:07:31.374Z,29.40
2022-08-17T15:10:01.412Z,29.30
2022-08-17T15:12:33.071Z,29.20
2022-08-17T15:15:01.346Z,29.00
2022-08-17T15:17:45.212Z,29.00
2022-08-17T15:20:16.951Z,28.90
2022-08-17T15:22:45.581Z,28.80
2022-08-17T15:25:14.053Z,28.80
2022-08-17T15:27:41.751Z,28.70
2022-08-17T15:30:10.050Z,28.60
2022-08-17T15:32:39.567Z,28.60
2022-08-17T15:35:09.164Z,28.60
2022-08-17T15:37:36.395Z,28.50
2022-08-17T15:40:05.322Z,28.60
2022-08-17T15:42:32.968Z,28.50
2022-08-17T15:45:06.663Z,28.70
2022-08-17T15:47:34.004Z,28.60
2022-08-17T15:50:01.118Z,28.50
2022-08-17T15:52:31.918Z,28.50
2022-08-17T15:55:00.774Z,28.40
2022-08-17T15:57:28.261Z,28.40
2022-08-17T15:59:58.461Z,28.40
2022-08-17T16:03:44.914Z,28.40
2022-08-17T16:05:24.830Z,28.50
2022-08-17T16:07:52.921Z,28.60
2022-08-17T16:10:21.074Z,28.70
2022-08-17T16:12:50.049Z,28.70
2022-08-17T16:15:19.205Z,28.70
2022-08-17T16:17:46.201Z,28.70
2022-08-17T16:20:20.302Z,28.50
2022-08-17T16:22:49.890Z,28.30
2022-08-17T16:25:51.975Z,28.10
2022-08-17T16:28:11.736Z,27.80
2022-08-17T16:30:38.918Z,27.50
2022-08-17T16:33:06.095Z,27.40
2022-08-17T16:35:33.288Z,27.40
2022-08-17T16:38:00.198Z,27.30
2022-08-17T16:40:29.034Z,27.20
2022-08-17T16:42:57.681Z,27.20
2022-08-17T16:45:36.833Z,27.10
2022-08-17T16:48:04.616Z,27.10
2022-08-17T16:50:32.541Z,27.00
2022-08-17T16:53:10.582Z,27.00
2022-08-17T16:55:38.903Z,27.00
2022-08-17T16:58:06.809Z,26.90
2022-08-17T17:00:34.159Z,26.90
2022-08-17T17:03:19.704Z,26.90
2022-08-17T17:06:14.395Z,26.90
2022-08-17T17:08:48.456Z,26.80
2022-08-17T17:11:22.941Z,26.70
2022-08-17T17:13:58.445Z,26.70
2022-08-17T17:16:47.727Z,26.60
2022-08-17T17:19:38.341Z,26.60
2022-08-17T17:22:32.747Z,26.50
2022-08-17T17:25:10.530Z,26.40
2022-08-17T17:27:53.763Z,26.30
2022-08-17T17:30:25.746Z,26.20
2022-08-17T17:33:01.785Z,26.20
2022-08-17T17:35:55.070Z,26.00
2022-08-17T17:38:34.261Z,25.90
2022-08-17T17:41:08.577Z,25.80
2022-08-17T17:43:39.663Z,25.80
2022-08-17T17:46:27.333Z,25.70
2022-08-17T17:48:59.582Z,25.60
2022-08-17T17:51:55.012Z,25.60
2022-08-17T17:54:46.502Z,25.50
2022-08-17T17:58:13.360Z,25.40
2022-08-17T18:01:13.562Z,25.20
2022-08-17T18:03:56.378Z,25.10
2022-08-17T18:06:47.324Z,25.10
2022-08-17T18:09:32.773Z,25.00
2022-08-17T18:12:12.462Z,24.90
2022-08-17T18:15:21.564Z,24.70
2022-08-17T18:18:00.757Z,24.60
2022-08-17T18:20:43.157Z,24.60
2022-08-17T18:23:10.801Z,24.50
2022-08-17T18:25:43.863Z,24.50
2022-08-17T18:28:31.707Z,24.50
2022-08-17T18:31:06.731Z,24.40
2022-08-17T18:33:34.707Z,24.40
2022-08-17T18:36:01.952Z,24.30
2022-08-17T18:38:36.193Z,24.30
2022-08-17T18:41:18.922Z,24.30
2022-08-17T18:43:59.497Z,24.30
2022-08-17T18:46:30.069Z,24.30
2022-08-17T18:49:23.853Z,24.20
2022-08-17T18:52:27.650Z,24.20
2022-08-17T18:55:20.721Z,24.20
2022-08-17T18:57:57.278Z,24.10
2022-08-17T19:00:30.373Z,24.00
2022-08-17T19:03:05.410Z,24.00
2022-08-17T19:06:01.485Z,23.90
2022-08-17T19:08:28.544Z,23.90
2022-08-17T19:11:09.467Z,23.80
2022-08-17T19:13:43.520Z,23.80
2022-08-17T19:16:27.390Z,23.80
2022-08-17T19:19:09.706Z,23.70
2022-08-17T19:21:41.485Z,23.60
2022-08-17T19:24:20.936Z,23.50
2022-08-17T19:26:59.718Z,23.30
2022-08-17T19:30:08.138Z,23.10
2022-08-17T19:32:35.998Z,22.90
2022-08-17T19:35:05.905Z,22.70
2022-08-17T19:37:53.575Z,22.60
2022-08-17T19:40:52.743Z,22.50
2022-08-17T19:43:48.438Z,22.40
2022-08-17T19:46:29.379Z,22.40
2022-08-17T19:49:22.737Z,22.30
2022-08-17T19:52:14.585Z,22.30
2022-08-17T19:54:55.506Z,22.30
2022-08-17T19:57:37.777Z,22.30
2022-08-17T20:00:12.488Z,22.30
2022-08-17T20:02:48.479Z,22.20
2022-08-17T20:06:15.085Z,22.20
2022-08-17T20:08:57.469Z,22.10
2022-08-17T20:11:50.174Z,22.00
2022-08-17T20:14:24.310Z,21.90
2022-08-17T20:16:51.554Z,21.90
2022-08-17T20:19:53.132Z,21.90
2022-08-17T20:22:36.847Z,22.00
2022-08-17T20:25:33.490Z,22.00
2022-08-17T20:28:31.114Z,22.00
2022-08-17T20:30:59.144Z,22.00
2022-08-17T20:33:37.674Z,21.90
2022-08-17T20:36:22.542Z,21.80
2022-08-17T20:38:56.759Z,21.70
2022-08-17T20:41:27.434Z,21.70
2022-08-17T20:43:56.927Z,21.70
2022-08-17T20:46:33.276Z,21.70
2022-08-17T20:49:09.166Z,21.60
2022-08-17T20:52:01.404Z,21.60
2022-08-17T20:54:46.645Z,21.50
2022-08-17T20:57:32.079Z,21.40
2022-08-17T21:00:18.216Z,21.40
2022-08-17T21:02:49.586Z,21.50
2022-08-17T21:05:34.295Z,21.50
2022-08-17T21:08:14.268Z,21.50
2022-08-17T21:10:45.569Z,21.60
2022-08-17T21:13:13.508Z,21.60
2022-08-17T21:15:48.674Z,21.70
2022-08-17T21:18:31.766Z,21.60
2022-08-17T21:21:17.832Z,21.50
2022-08-17T21:23:50.857Z,21.30
2022-08-17T21:26:50.403Z,21.20
2022-08-17T21:29:31.191Z,21.20
2022-08-17T21:32:02.713Z,21.20
2022-08-17T21:34:32.950Z,21.40
2022-08-17T21:37:18.726Z,21.50
2022-08-17T21:40:00.564Z,21.70
2022-08-17T21:42:38.323Z,21.80
2022-08-17T21:45:27.355Z,21.70
2022-08-17T21:48:19.661Z,21.60
2022-08-17T21:50:57.669Z,21.60
2022-08-17T21:53:33.974Z,21.60
2022-08-17T21:56:01.342Z,21.60
2022-08-17T21:58:32.146Z,21.60
2022-08-17T22:01:21.177Z,21.60
2022-08-17T22:04:18.155Z,21.50
2022-08-17T22:06:57.321Z,21.40
2022-08-17T22:09:34.316Z,21.30
2022-08-17T22:12:07.934Z,21.30
2022-08-17T22:14:51.720Z,21.20
2022-08-17T22:17:40.071Z,21.20
2022-08-17T22:20:15.312Z,21.10
2022-08-17T22:23:12.697Z,21.20
2022-08-17T22:26:09.572Z,21.00
2022-08-17T22:28:42.431Z,21.00
2022-08-17T22:31:13.514Z,20.90
2022-08-17T22:34:07.504Z,20.80
2022-08-17T22:36:36.569Z,20.70
2022-08-17T22:39:09.129Z,20.60
2022-08-17T22:41:48.322Z,20.50
2022-08-17T22:44:27.391Z,20.50
2022-08-17T22:47:11.264Z,20.40
2022-08-17T22:49:57.774Z,20.40
2022-08-17T22:53:01.436Z,20.40
2022-08-17T22:55:49.947Z,20.40
2022-08-17T22:58:39.412Z,20.30
2022-08-17T23:01:29.985Z,20.40
2022-08-17T23:04:04.012Z,20.40
2022-08-17T23:06:34.947Z,20.40
2022-08-17T23:09:04.299Z,20.40
2022-08-17T23:11:50.647Z,20.40
2022-08-17T23:14:20.129Z,20.40
2022-08-17T23:16:50.045Z,20.40
2022-08-17T23:19:20.685Z,20.30
2022-08-17T23:21:49.150Z,20.20
2022-08-17T23:24:22.449Z,20.20
2022-08-17T23:26:49.642Z,20.20
2022-08-17T23:29:16.983Z,20.10
2022-08-17T23:31:44.518Z,20.20
2022-08-17T23:34:13.448Z,20.10
2022-08-17T23:36:40.559Z,20.10
2022-08-17T23:39:08.052Z,20.10
2022-08-17T23:41:38.952Z,20.10
2022-08-17T23:44:06.729Z,20.10
2022-08-17T23:46:34.675Z,20.00
2022-08-17T23:49:03.171Z,20.00
2022-08-17T23:51:42.575Z,20.00
2022-08-17T23:54:25.099Z,19.90
2022-08-17T23:56:52.803Z,19.80
2022-08-17T23:59:22.518Z,19.70
